Time;durP1;ratioP1;P1;durP2;ratioP2;P2;SDS_P1;SDS_P2;PMS_P1;PMS_P2;Temp;Humidity;BMP_temperature;BMP_pressure;BME280_temperature;BME280_humidity;BME280_pressure;Samples;Min_cycle;Max_cycle;Signal;HPM_P1;HPM_P2
2022/03/23 00:00:05;;;;;;;28.67;25.97;;;7.60;86.50;;;;;;5075528;28;20473;-76
2022/03/23 00:02:38;;;;;;;29.47;26.57;;;7.50;86.70;;;;;;5077075;28;20844;-76
2022/03/23 00:05:08;;;;;;;30.57;27.67;;;7.50;86.70;;;;;;5076646;28;20491;-76
2022/03/23 00:07:36;;;;;;;28.97;26.10;;;7.50;86.80;;;;;;5075501;28;20444;-76
2022/03/23 00:10:06;;;;;;;29.03;26.13;;;7.40;86.70;;;;;;5075695;28;20451;-76
2022/03/23 00:12:34;;;;;;;29.63;26.27;;;7.40;86.80;;;;;;5076621;28;20960;-75
2022/03/23 00:15:02;;;;;;;29.20;26.37;;;7.30;86.80;;;;;;5075280;28;20452;-76
2022/03/23 00:17:31;;;;;;;30.83;27.63;;;7.30;86.90;;;;;;5077040;28;20433;-76
2022/03/23 00:19:59;;;;;;;28.90;26.10;;;7.30;87.00;;;;;;5075280;28;20491;-76
2022/03/23 00:22:29;;;;;;;29.60;26.70;;;7.20;87.10;;;;;;5075147;28;20851;-76
2022/03/23 00:24:57;;;;;;;30.13;27.10;;;7.20;87.90;;;;;;5076338;28;20974;-76
2022/03/23 00:27:26;;;;;;;28.60;25.60;;;7.20;87.30;;;;;;5076894;28;20471;-77
2022/03/23 00:29:54;;;;;;;30.33;27.20;;;7.10;87.90;;;;;;5075672;28;20452;-77
2022/03/23 00:32:22;;;;;;;29.07;26.23;;;7.10;87.40;;;;;;5075329;28;20526;-78
2022/03/23 00:34:50;;;;;;;29.27;26.30;;;7.00;87.30;;;;;;5075272;28;20942;-77
2022/03/23 00:37:19;;;;;;;27.83;25.10;;;7.00;87.40;;;;;;5075228;28;20477;-77
2022/03/23 00:39:49;;;;;;;28.73;25.90;;;7.00;87.50;;;;;;5075100;28;20491;-77
2022/03/23 00:42:17;;;;;;;28.33;25.53;;;6.90;87.60;;;;;;5075523;28;20488;-77
2022/03/23 00:44:45;;;;;;;28.30;25.50;;;6.90;87.60;;;;;;5076478;28;20471;-77
2022/03/23 00:47:15;;;;;;;29.60;26.70;;;6.90;87.70;;;;;;5074795;28;20847;-77
2022/03/23 00:49:44;;;;;;;28.93;26.07;;;6.80;87.80;;;;;;5074773;28;20446;-78
2022/03/23 00:52:13;;;;;;;29.30;26.37;;;6.80;87.90;;;;;;5075988;28;20910;-77
2022/03/23 00:54:41;;;;;;;27.27;24.47;;;6.70;87.80;;;;;;5074561;28;20541;-77
2022/03/23 00:57:11;;;;;;;27.50;24.70;;;6.70;87.90;;;;;;5074432;28;20499;-77
2022/03/23 00:59:39;;;;;;;27.63;24.87;;;6.70;88.00;;;;;;5074395;28;21000;-78
2022/03/23 01:02:10;;;;;;;28.43;25.50;;;6.60;87.90;;;;;;5075650;28;20449;-77
2022/03/23 01:04:38;;;;;;;28.47;25.70;;;6.60;88.00;;;;;;5074461;28;20446;-77
2022/03/23 01:07:07;;;;;;;27.37;24.70;;;6.60;88.10;;;;;;5074872;28;20557;-77
2022/03/23 01:09:36;;;;;;;28.27;25.50;;;6.50;88.20;;;;;;5074291;28;20445;-77
2022/03/23 01:12:05;;;;;;;27.93;25.23;;;6.50;88.30;;;;;;5074136;28;20450;-77
2022/03/23 01:14:35;;;;;;;27.23;24.63;;;6.40;88.40;;;;;;5074437;28;20801;-77
2022/03/23 01:17:03;;;;;;;28.40;25.47;;;6.40;88.50;;;;;;5073896;28;20479;-78
2022/03/23 01:19:32;;;;;;;27.40;24.80;;;6.40;88.60;;;;;;5074009;28;20465;-78
2022/03/23 01:22:00;;;;;;;29.10;26.10;;;6.40;88.70;;;;;;5074049;28;20498;-78
2022/03/23 01:24:28;;;;;;;27.50;24.90;;;6.30;88.60;;;;;;5074044;28;20477;-78
2022/03/23 01:26:57;;;;;;;27.60;24.60;;;6.30;88.70;;;;;;5073987;28;21044;-77
2022/03/23 01:29:25;;;;;;;26.80;23.70;;;6.30;88.70;;;;;;5073817;28;20441;-77
2022/03/23 01:31:54;;;;;;;28.40;25.43;;;6.30;88.70;;;;;;5073654;28;20489;-77
2022/03/23 01:34:23;;;;;;;26.90;24.10;;;6.20;88.70;;;;;;5073895;28;20452;-78
2022/03/23 01:36:52;;;;;;;27.07;24.47;;;6.20;88.70;;;;;;5073782;28;20518;-77
2022/03/23 01:39:20;;;;;;;28.07;25.30;;;6.10;88.70;;;;;;5075234;28;20465;-77
2022/03/23 01:41:49;;;;;;;28.10;25.30;;;6.10;88.80;;;;;;5073645;28;20894;-78
2022/03/23 01:44:20;;;;;;;29.53;26.47;;;6.10;88.80;;;;;;5073745;28;20441;-78
2022/03/23 01:47:06;;;;;;;26.73;24.20;;;6.00;88.80;;;;;;5072710;28;20469;-77
2022/03/23 01:49:36;;;;;;;27.77;24.97;;;6.00;88.90;;;;;;5073594;28;20525;-78
2022/03/23 01:52:07;;;;;;;27.03;24.33;;;6.00;88.90;;;;;;5074814;28;20429;-78
2022/03/23 01:54:37;;;;;;;27.87;25.07;;;5.90;88.90;;;;;;5074631;28;20515;-77
2022/03/23 01:57:06;;;;;;;26.43;23.87;;;5.90;88.90;;;;;;5073298;28;20482;-77
2022/03/23 01:59:35;;;;;;;27.50;24.80;;;5.90;89.00;;;;;;5073271;28;20458;-78
2022/03/23 02:02:06;;;;;;;28.10;25.10;;;5.80;89.00;;;;;;5073489;28;20450;-77
2022/03/23 02:04:39;;;;;;;27.90;25.00;;;5.80;89.00;;;;;;5074087;28;20457;-77
2022/03/23 02:07:08;;;;;;;27.67;25.00;;;5.80;89.10;;;;;;5073079;28;20556;-78
2022/03/23 02:09:40;;;;;;;29.97;26.87;;;5.80;89.20;;;;;;5073024;28;20439;-77
2022/03/23 02:12:13;;;;;;;29.57;26.70;;;5.70;89.10;;;;;;5073132;28;20483;-77
2022/03/23 02:14:42;;;;;;;27.43;24.73;;;5.70;89.20;;;;;;5073117;28;20488;-78
2022/03/23 02:17:13;;;;;;;28.00;25.17;;;5.60;89.30;;;;;;5074360;28;20454;-77
2022/03/23 02:19:42;;;;;;;28.77;25.70;;;5.60;89.40;;;;;;5072995;28;20458;-77
2022/03/23 02:22:14;;;;;;;27.50;24.73;;;5.60;89.40;;;;;;5072949;28;20441;-77
2022/03/23 02:24:42;;;;;;;26.73;24.13;;;5.60;89.60;;;;;;5072972;28;20449;-77
2022/03/23 02:27:11;;;;;;;26.03;23.53;;;5.50;89.50;;;;;;5074890;28;20556;-77
2022/03/23 02:29:39;;;;;;;26.90;24.20;;;5.50;89.70;;;;;;5072812;28;20833;-77
2022/03/23 02:32:08;;;;;;;28.03;24.50;;;5.50;89.70;;;;;;5073920;28;20930;-77
2022/03/23 02:34:37;;;;;;;26.13;23.53;;;5.40;89.60;;;;;;5072711;28;20477;-78
2022/03/23 02:37:05;;;;;;;27.03;24.33;;;5.40;89.70;;;;;;5072558;28;20505;-77
2022/03/23 02:39:35;;;;;;;26.90;24.00;;;5.40;89.70;;;;;;5074255;28;20443;-77
2022/03/23 02:42:03;;;;;;;33.50;26.70;;;5.40;89.80;;;;;;5072678;28;20498;-77
2022/03/23 02:44:32;;;;;;;27.97;24.97;;;5.30;89.80;;;;;;5072866;28;20802;-78
2022/03/23 02:47:01;;;;;;;28.77;25.77;;;5.40;90.00;;;;;;5074253;28;20540;-78
2022/03/23 02:49:29;;;;;;;26.93;24.23;;;5.30;90.00;;;;;;5072561;28;20985;-77
2022/03/23 02:51:57;;;;;;;28.63;23.97;;;5.30;90.00;;;;;;5072716;28;20797;-77
2022/03/23 03:03:06;;;;;;;30.80;25.23;;;5.10;90.00;;;;;;5072229;28;20449;-78
2022/03/23 03:05:34;;;;;;;29.00;24.17;;;5.10;90.00;;;;;;5073480;28;20456;-78
2022/03/23 03:10:48;;;;;;;31.00;25.97;;;5.00;90.10;;;;;;5072558;28;20448;-77
2022/03/23 03:13:17;;;;;;;28.60;25.50;;;5.00;90.10;;;;;;5094731;28;20425;-78
2022/03/23 03:15:46;;;;;;;27.13;23.67;;;5.00;90.10;;;;;;5098624;28;20452;-77
2022/03/23 03:18:14;;;;;;;27.70;24.70;;;4.90;90.10;;;;;;5098651;28;20402;-78
2022/03/23 03:20:42;;;;;;;28.07;25.27;;;4.90;90.10;;;;;;5092757;28;20474;-78
2022/03/23 03:23:11;;;;;;;28.87;25.80;;;4.90;90.10;;;;;;5078647;28;20463;-78
2022/03/23 03:25:40;;;;;;;28.03;24.93;;;4.90;90.20;;;;;;5078067;28;20480;-77
2022/03/23 03:28:08;;;;;;;26.80;24.00;;;4.80;90.10;;;;;;5079450;28;20436;-77
2022/03/23 03:30:37;;;;;;;28.77;24.53;;;4.80;90.20;;;;;;5076030;28;20507;-77
2022/03/23 03:33:06;;;;;;;27.57;24.60;;;4.80;90.20;;;;;;5072158;28;20852;-78
2022/03/23 03:35:34;;;;;;;28.07;25.17;;;4.80;90.30;;;;;;5072334;28;20468;-77
2022/03/23 03:38:02;;;;;;;27.17;24.20;;;4.80;90.30;;;;;;5072293;28;20548;-78
2022/03/23 03:40:30;;;;;;;27.83;24.47;;;4.80;90.30;;;;;;5071952;28;20465;-77
2022/03/23 03:42:58;;;;;;;28.23;25.27;;;4.70;90.30;;;;;;5071893;28;20449;-78
2022/03/23 03:45:27;;;;;;;28.73;25.47;;;4.70;90.30;;;;;;5072174;28;20480;-78
2022/03/23 03:47:56;;;;;;;28.60;25.50;;;4.70;90.40;;;;;;5073428;28;20433;-77
2022/03/23 03:50:25;;;;;;;26.63;23.37;;;4.60;90.40;;;;;;5071916;28;20488;-78
2022/03/23 03:52:53;;;;;;;28.93;25.60;;;4.60;90.40;;;;;;5071738;28;20451;-78
2022/03/23 03:55:21;;;;;;;28.13;25.03;;;4.60;90.40;;;;;;5071963;28;20829;-77
2022/03/23 03:57:50;;;;;;;27.67;24.70;;;4.60;90.50;;;;;;5071797;28;20441;-78
2022/03/23 04:00:19;;;;;;;26.13;23.27;;;4.50;90.40;;;;;;5071668;28;20460;-78
2022/03/23 04:02:47;;;;;;;29.67;25.47;;;4.50;90.50;;;;;;5073259;28;20459;-78
2022/03/23 04:05:17;;;;;;;28.20;25.30;;;4.50;90.50;;;;;;5073023;28;20850;-77
2022/03/23 04:07:45;;;;;;;28.03;24.47;;;4.50;90.60;;;;;;5072168;28;20460;-77
2022/03/23 04:10:13;;;;;;;28.10;25.10;;;4.40;90.50;;;;;;5074197;28;20562;-77
2022/03/23 04:12:42;;;;;;;29.50;26.10;;;4.40;90.60;;;;;;5075353;28;20498;-77
2022/03/23 04:15:10;;;;;;;27.87;24.97;;;4.40;90.60;;;;;;5075267;28;20452;-77
2022/03/23 04:17:38;;;;;;;29.47;26.03;;;4.40;90.60;;;;;;5075182;28;20552;-77
2022/03/23 04:20:08;;;;;;;26.07;23.33;;;4.40;90.70;;;;;;5075360;28;20463;-78
2022/03/23 04:22:38;;;;;;;27.53;24.47;;;4.30;90.60;;;;;;5076337;28;20471;-78
2022/03/23 04:25:08;;;;;;;30.00;26.07;;;4.30;90.70;;;;;;5074950;28;21037;-77
2022/03/23 04:27:45;;;;;;;31.40;25.63;;;4.30;90.70;;;;;;5076201;28;21017;-78
2022/03/23 04:30:14;;;;;;;27.17;24.00;;;4.30;90.70;;;;;;5076131;28;20413;-78
2022/03/23 04:32:43;;;;;;;27.27;24.37;;;4.20;90.70;;;;;;5075646;28;20449;-78
2022/03/23 04:35:11;;;;;;;26.40;23.70;;;4.20;90.70;;;;;;5074769;28;20437;-77
2022/03/23 04:37:41;;;;;;;27.77;23.80;;;4.20;90.70;;;;;;5074862;28;20860;-77
2022/03/23 04:40:11;;;;;;;28.37;25.57;;;4.20;90.70;;;;;;5076435;28;21002;-78
2022/03/23 04:42:40;;;;;;;28.80;25.77;;;4.10;90.70;;;;;;5076535;28;20465;-78
2022/03/23 04:45:10;;;;;;;27.77;24.77;;;4.10;90.70;;;;;;5076305;28;20433;-77
2022/03/23 04:47:38;;;;;;;29.20;26.30;;;4.10;90.70;;;;;;5076089;28;20437;-77
2022/03/23 04:50:09;;;;;;;27.70;25.00;;;4.10;90.80;;;;;;5074545;28;20442;-78
2022/03/23 04:52:40;;;;;;;27.03;24.23;;;4.00;90.80;;;;;;5074622;28;20493;-78
2022/03/23 04:55:10;;;;;;;28.43;25.10;;;4.00;90.80;;;;;;5076601;28;20447;-77
2022/03/23 04:57:38;;;;;;;27.80;23.80;;;4.00;90.80;;;;;;5074476;28;20465;-77
2022/03/23 05:00:10;;;;;;;27.97;24.37;;;4.00;90.80;;;;;;5074580;28;20488;-77
2022/03/23 05:02:44;;;;;;;27.27;24.43;;;3.90;90.80;;;;;;5076123;28;20460;-77
2022/03/23 05:05:13;;;;;;;28.30;25.40;;;3.90;90.80;;;;;;5074273;28;20449;-77
2022/03/23 05:07:44;;;;;;;30.80;26.43;;;3.90;90.80;;;;;;5074151;28;20485;-78
2022/03/23 05:10:14;;;;;;;26.33;23.53;;;3.80;90.80;;;;;;5075930;28;20429;-78
2022/03/23 05:12:44;;;;;;;28.00;25.00;;;3.80;90.80;;;;;;5075444;28;20537;-78
2022/03/23 05:15:13;;;;;;;29.07;25.30;;;3.80;90.80;;;;;;5074087;28;20445;-78
2022/03/23 05:17:44;;;;;;;26.03;23.43;;;3.80;90.90;;;;;;5074180;28;20449;-77
2022/03/23 05:20:13;;;;;;;30.87;26.40;;;3.80;90.90;;;;;;5074803;28;20891;-77
2022/03/23 05:22:43;;;;;;;28.43;25.60;;;3.80;90.90;;;;;;5073435;28;20504;-78
2022/03/23 05:25:13;;;;;;;28.13;24.00;;;3.70;90.90;;;;;;5075255;28;20437;-77
2022/03/23 05:27:42;;;;;;;29.63;25.87;;;3.70;90.90;;;;;;5075447;28;20464;-78
2022/03/23 05:30:12;;;;;;;26.87;24.03;;;3.70;91.00;;;;;;5074000;28;20870;-78
2022/03/23 05:32:41;;;;;;;30.60;25.30;;;3.70;90.90;;;;;;5073899;28;20486;-78
2022/03/23 05:35:11;;;;;;;27.73;24.70;;;3.70;91.00;;;;;;5073710;28;20457;-78
2022/03/23 05:37:39;;;;;;;28.07;25.13;;;3.70;91.00;;;;;;5073585;28;20449;-78
2022/03/23 05:40:11;;;;;;;30.97;25.70;;;3.60;91.00;;;;;;5073656;28;20455;-78
2022/03/23 05:42:40;;;;;;;28.83;25.83;;;3.60;91.00;;;;;;5073655;28;20469;-78
2022/03/23 05:45:09;;;;;;;29.10;26.30;;;3.60;91.00;;;;;;5074996;28;20437;-78
2022/03/23 05:47:38;;;;;;;29.43;26.33;;;3.60;91.00;;;;;;5075005;28;20453;-78
2022/03/23 05:50:08;;;;;;;29.73;25.10;;;3.60;91.00;;;;;;5073395;28;20437;-78
2022/03/23 05:52:37;;;;;;;28.77;25.70;;;3.60;91.10;;;;;;5074603;28;20532;-77
2022/03/23 05:55:07;;;;;;;28.43;25.30;;;3.60;91.10;;;;;;5074625;28;20801;-77
2022/03/23 05:57:38;;;;;;;30.47;27.03;;;3.60;91.10;;;;;;5073370;28;20445;-77
2022/03/23 06:00:09;;;;;;;30.40;25.87;;;3.60;91.20;;;;;;5073563;28;20800;-77
2022/03/23 06:02:40;;;;;;;32.20;28.87;;;3.60;91.20;;;;;;5073324;28;20518;-77
2022/03/23 06:05:10;;;;;;;32.37;26.73;;;3.60;91.30;;;;;;5073114;28;20452;-77
2022/03/23 06:07:39;;;;;;;31.60;28.40;;;3.60;91.30;;;;;;5073325;28;20522;-77
2022/03/23 06:10:08;;;;;;;27.90;25.17;;;3.60;91.40;;;;;;5072944;28;20457;-77
2022/03/23 06:12:38;;;;;;;34.97;27.70;;;3.70;91.50;;;;;;5074346;28;21038;-78
2022/03/23 06:15:08;;;;;;;28.43;25.43;;;3.70;91.50;;;;;;5074556;28;20499;-77
2022/03/23 06:17:36;;;;;;;31.50;28.07;;;3.70;91.60;;;;;;5074380;28;20435;-78
2022/03/23 06:20:06;;;;;;;32.07;28.10;;;3.70;91.60;;;;;;5072847;28;20499;-78
2022/03/23 06:22:34;;;;;;;28.83;25.43;;;3.80;91.70;;;;;;5072808;28;20465;-78
2022/03/23 06:25:03;;;;;;;32.50;28.13;;;3.80;91.80;;;;;;5072626;28;20539;-78
2022/03/23 06:27:31;;;;;;;31.50;28.00;;;3.90;91.80;;;;;;5075462;28;20477;-79
2022/03/23 06:30:00;;;;;;;34.77;28.77;;;4.00;91.90;;;;;;5075447;28;20481;-79
2022/03/23 06:32:29;;;;;;;32.60;29.10;;;4.20;92.00;;;;;;5075295;28;21057;-79
2022/03/23 06:34:57;;;;;;;29.30;26.30;;;4.40;92.10;;;;;;5075313;28;20441;-79
2022/03/23 06:37:25;;;;;;;33.80;29.90;;;4.50;92.20;;;;;;5077138;28;20457;-79
2022/03/23 06:39:54;;;;;;;30.50;27.33;;;4.70;92.30;;;;;;5077640;28;20429;-78
2022/03/23 06:42:23;;;;;;;29.50;26.60;;;5.00;92.40;;;;;;5078491;28;20465;-78
2022/03/23 06:44:51;;;;;;;31.77;28.60;;;5.20;92.50;;;;;;5076998;28;20812;-79
2022/03/23 06:47:21;;;;;;;29.73;26.87;;;5.30;92.50;;;;;;5077587;28;20539;-79
2022/03/23 06:49:49;;;;;;;29.50;26.53;;;5.50;92.60;;;;;;5076808;28;20532;-79
2022/03/23 06:52:17;;;;;;;28.53;25.87;;;5.70;92.60;;;;;;5077470;28;20544;-78
2022/03/23 06:54:46;;;;;;;28.83;26.00;;;5.90;92.70;;;;;;5076779;28;20437;-78
2022/03/23 06:57:14;;;;;;;30.53;27.63;;;6.00;92.70;;;;;;5077406;28;20504;-79
2022/03/23 06:59:42;;;;;;;31.37;28.07;;;6.10;92.70;;;;;;5077980;28;20464;-80
2022/03/23 07:02:11;;;;;;;27.23;24.67;;;6.20;92.60;;;;;;5077821;28;20567;-79
2022/03/23 07:04:41;;;;;;;29.13;26.40;;;6.30;92.50;;;;;;5079378;28;20943;-78
2022/03/23 07:07:09;;;;;;;27.57;25.00;;;6.30;92.40;;;;;;5077533;28;20461;-79
2022/03/23 07:09:39;;;;;;;27.23;24.70;;;6.40;92.30;;;;;;5078246;28;20441;-79
2022/03/23 07:12:09;;;;;;;27.87;25.23;;;6.40;92.10;;;;;;5078207;28;20491;-79
2022/03/23 07:14:39;;;;;;;29.27;26.47;;;6.50;92.00;;;;;;5078907;28;20485;-79
2022/03/23 07:17:08;;;;;;;28.20;25.50;;;6.60;91.90;;;;;;5077573;28;20548;-79
2022/03/23 07:19:36;;;;;;;29.33;26.63;;;6.70;91.80;;;;;;5078132;28;20473;-79
2022/03/23 07:22:06;;;;;;;28.40;25.70;;;6.80;91.70;;;;;;5076423;28;20489;-79
2022/03/23 07:24:34;;;;;;;29.70;26.80;;;6.90;91.70;;;;;;5074791;28;20484;-78
2022/03/23 07:27:07;;;;;;;1342.67;174.47;;;7.00;91.60;;;;;;5074211;28;20555;-78
2022/03/23 07:29:51;;;;;;;813.37;124.47;;;7.10;91.60;;;;;;5075371;28;20459;-78
2022/03/23 07:32:19;;;;;;;44.27;30.37;;;7.20;91.60;;;;;;5076668;28;20456;-79
2022/03/23 07:34:48;;;;;;;27.73;25.07;;;7.20;91.50;;;;;;5076212;28;20543;-78
2022/03/23 07:37:17;;;;;;;27.83;24.83;;;7.30;91.40;;;;;;5074574;28;20472;-78
2022/03/23 07:39:45;;;;;;;27.77;24.87;;;7.40;91.30;;;;;;5074978;28;20988;-78
2022/03/23 07:42:14;;;;;;;26.70;24.17;;;7.50;91.20;;;;;;5075103;28;20835;-78
2022/03/23 07:44:42;;;;;;;26.57;24.10;;;7.50;91.10;;;;;;5076493;28;20948;-79
2022/03/23 07:47:11;;;;;;;28.17;24.80;;;7.60;91.00;;;;;;5079712;28;21026;-79
2022/03/23 07:49:41;;;;;;;27.80;24.97;;;7.70;90.80;;;;;;5080502;28;20472;-78
2022/03/23 07:52:10;;;;;;;27.40;24.50;;;7.80;90.70;;;;;;5078059;28;20448;-78
2022/03/23 07:54:39;;;;;;;1999.90;999.90;;;7.90;90.60;;;;;;5077146;28;20448;-78
2022/03/23 07:57:08;;;;;;;145.17;61.37;;;8.00;90.60;;;;;;5078649;28;20471;-79
2022/03/23 07:59:36;;;;;;;126.50;52.17;;;8.20;90.70;;;;;;5077707;28;20476;-78
2022/03/23 08:02:04;;;;;;;41.87;30.10;;;8.40;90.70;;;;;;5078065;28;20460;-78
2022/03/23 08:04:33;;;;;;;32.27;27.70;;;8.60;90.60;;;;;;5078509;28;20457;-78
2022/03/23 08:07:02;;;;;;;29.80;25.80;;;8.90;90.50;;;;;;5078693;28;20489;-78
2022/03/23 08:09:31;;;;;;;25.50;23.00;;;9.10;90.40;;;;;;5077037;28;20449;-79
2022/03/23 08:12:01;;;;;;;25.80;23.30;;;9.30;90.30;;;;;;5078219;28;20490;-78
2022/03/23 08:14:29;;;;;;;25.50;23.00;;;9.50;90.10;;;;;;5078352;28;20456;-78
2022/03/23 08:16:58;;;;;;;1417.00;212.87;;;9.80;90.00;;;;;;5076561;28;20467;-79
2022/03/23 08:19:26;;;;;;;47.00;25.83;;;10.00;88.80;;;;;;5079556;28;20443;-78
2022/03/23 08:21:55;;;;;;;30.63;23.77;;;10.20;88.90;;;;;;5079115;28;20444;-78
2022/03/23 08:24:23;;;;;;;31.30;25.00;;;10.50;89.00;;;;;;5078406;28;20480;-78
2022/03/23 08:26:51;;;;;;;76.67;29.30;;;10.70;89.00;;;;;;5078250;28;20465;-79
2022/03/23 08:29:21;;;;;;;32.63;24.97;;;10.90;88.90;;;;;;5081204;28;20453;-78
2022/03/23 08:31:49;;;;;;;27.47;24.87;;;11.10;88.90;;;;;;5078858;28;20441;-78
2022/03/23 08:34:18;;;;;;;26.60;23.80;;;11.30;88.90;;;;;;5079245;28;20989;-78
2022/03/23 08:36:46;;;;;;;27.70;25.00;;;11.50;88.90;;;;;;5079101;28;20504;-79
2022/03/23 08:39:16;;;;;;;26.53;23.90;;;11.60;88.60;;;;;;5079695;28;20449;-78
2022/03/23 08:41:44;;;;;;;26.87;24.30;;;11.80;88.00;;;;;;5080008;28;20479;-79
2022/03/23 08:44:12;;;;;;;25.10;22.70;;;11.90;87.70;;;;;;5080914;28;20836;-79
2022/03/23 08:46:43;;;;;;;25.20;22.60;;;12.10;87.40;;;;;;5081416;28;20476;-79
2022/03/23 08:49:12;;;;;;;25.20;22.90;;;12.20;87.20;;;;;;5083124;28;20421;-79
2022/03/23 08:51:40;;;;;;;27.30;24.57;;;12.30;87.30;;;;;;5082434;28;20451;-79
2022/03/23 08:54:08;;;;;;;26.90;24.27;;;12.50;87.30;;;;;;5083719;28;20444;-78
2022/03/23 08:56:37;;;;;;;25.90;23.50;;;12.60;86.90;;;;;;5082078;28;20465;-78
2022/03/23 08:59:05;;;;;;;25.30;23.00;;;12.80;86.60;;;;;;5083443;28;20441;-79
2022/03/23 09:01:33;;;;;;;26.03;23.53;;;12.90;86.10;;;;;;5081273;28;20437;-79
2022/03/23 09:04:04;;;;;;;25.90;23.33;;;13.00;85.50;;;;;;5081578;28;20465;-79
2022/03/23 09:06:33;;;;;;;25.53;23.00;;;13.10;85.40;;;;;;5080265;28;20472;-79
2022/03/23 09:09:01;;;;;;;24.00;21.90;;;13.30;85.30;;;;;;5080872;28;20456;-78
2022/03/23 09:11:30;;;;;;;25.60;23.20;;;13.40;84.80;;;;;;5080743;28;20489;-79
2022/03/23 09:13:59;;;;;;;28.13;25.30;;;13.50;84.50;;;;;;5084376;28;20437;-79
2022/03/23 09:16:27;;;;;;;25.00;22.70;;;13.60;84.10;;;;;;5093894;28;20464;-79
2022/03/23 09:18:56;;;;;;;25.97;23.40;;;13.80;84.00;;;;;;5085303;28;20476;-79
2022/03/23 09:21:25;;;;;;;24.70;22.40;;;13.80;83.60;;;;;;5085520;28;20449;-79
2022/03/23 09:23:54;;;;;;;24.83;22.40;;;13.90;83.20;;;;;;5084308;28;20476;-79
2022/03/23 09:26:22;;;;;;;25.70;23.13;;;14.00;83.30;;;;;;5084941;28;20469;-78
2022/03/23 09:28:51;;;;;;;24.47;22.23;;;14.10;83.20;;;;;;5085275;28;20451;-78
2022/03/23 09:31:20;;;;;;;25.50;23.17;;;14.20;83.00;;;;;;5082074;28;20445;-78
2022/03/23 09:33:49;;;;;;;24.43;22.23;;;14.30;82.80;;;;;;5091544;28;20448;-78
2022/03/23 09:37:47;;;;;;;22.43;20.33;;;14.40;82.60;;;;;;5091995;28;20552;-79
2022/03/23 09:39:14;;;;;;;24.10;21.67;;;14.50;82.30;;;;;;5094120;28;20475;-78
2022/03/23 09:41:43;;;;;;;22.90;20.70;;;14.60;81.60;;;;;;5089992;28;20447;-78
2022/03/23 09:44:12;;;;;;;22.50;20.30;;;14.70;81.10;;;;;;5087994;28;20495;-77
2022/03/23 09:46:41;;;;;;;23.73;21.53;;;14.70;80.50;;;;;;5090039;28;20465;-79
2022/03/23 09:49:09;;;;;;;25.23;22.83;;;14.70;79.80;;;;;;5091483;28;20445;-78
2022/03/23 09:51:39;;;;;;;23.87;21.13;;;14.70;79.30;;;;;;5092872;28;20441;-78
2022/03/23 09:54:08;;;;;;;23.17;20.87;;;14.80;78.60;;;;;;5089666;28;20459;-79
2022/03/23 09:56:38;;;;;;;21.03;19.17;;;14.80;78.10;;;;;;5088677;28;20472;-79
2022/03/23 09:59:07;;;;;;;21.87;19.83;;;14.90;78.00;;;;;;5089184;28;20438;-79
2022/03/23 10:02:23;;;;;;;21.20;19.30;;;14.90;77.60;;;;;;5086093;28;20461;-78
2022/03/23 10:05:22;;;;;;;21.30;19.60;;;15.00;77.20;;;;;;5082361;28;20492;-79
2022/03/23 10:07:57;;;;;;;19.07;17.37;;;15.00;77.00;;;;;;5078638;28;20454;-79
2022/03/23 10:11:23;;;;;;;20.33;18.50;;;15.10;76.30;;;;;;5084724;28;20454;-79
2022/03/23 10:14:29;;;;;;;19.47;17.87;;;15.10;75.20;;;;;;5083754;28;20896;-79
2022/03/23 10:17:41;;;;;;;20.53;18.60;;;15.10;73.90;;;;;;5081738;28;20541;-79
2022/03/23 10:20:11;;;;;;;20.30;18.33;;;15.20;73.90;;;;;;5078797;28;20432;-78
2022/03/23 10:22:46;;;;;;;20.33;18.13;;;15.20;74.20;;;;;;5078148;28;20429;-78
2022/03/23 10:25:15;;;;;;;18.93;17.33;;;15.20;73.20;;;;;;5076048;28;20464;-77
2022/03/23 10:27:45;;;;;;;19.43;17.70;;;15.20;73.10;;;;;;5074161;28;20927;-76
2022/03/23 10:30:14;;;;;;;20.63;18.50;;;15.30;72.90;;;;;;5072519;28;21017;-77
2022/03/23 10:32:44;;;;;;;19.30;17.60;;;15.30;72.30;;;;;;5072410;28;20498;-77
2022/03/23 10:35:14;;;;;;;19.67;17.93;;;15.30;71.80;;;;;;5073960;28;20437;-76
2022/03/23 10:37:44;;;;;;;19.30;17.70;;;15.40;71.50;;;;;;5072996;28;20488;-76
2022/03/23 10:40:18;;;;;;;20.57;18.73;;;15.40;71.00;;;;;;5072331;28;20437;-77
2022/03/23 10:42:49;;;;;;;25.37;16.90;;;15.40;70.60;;;;;;5074334;28;20417;-77
2022/03/23 10:45:20;;;;;;;18.60;16.90;;;15.40;70.20;;;;;;5072326;28;20461;-76
2022/03/23 10:47:50;;;;;;;18.43;16.53;;;15.40;69.70;;;;;;5072493;28;20536;-76
2022/03/23 10:50:21;;;;;;;19.67;17.70;;;15.40;69.60;;;;;;5072304;28;20773;-77
2022/03/23 10:52:52;;;;;;;18.53;16.70;;;15.40;68.70;;;;;;5073683;28;20409;-77
2022/03/23 10:55:21;;;;;;;19.33;17.50;;;15.40;68.40;;;;;;5074436;28;20878;-77
2022/03/23 10:58:25;;;;;;;17.97;16.30;;;15.40;68.20;;;;;;5073573;28;20797;-76
2022/03/23 11:00:56;;;;;;;18.20;16.60;;;15.40;67.50;;;;;;5075806;28;20420;-78
2022/03/23 11:03:40;;;;;;;18.50;16.87;;;15.50;67.40;;;;;;5077806;28;20425;-76
2022/03/23 11:06:10;;;;;;;17.87;16.23;;;15.50;66.50;;;;;;5074460;28;20993;-77
2022/03/23 11:08:38;;;;;;;17.90;16.37;;;15.50;66.00;;;;;;5072679;28;20483;-77
2022/03/23 11:16:40;;;;;;;17.50;15.77;;;15.50;65.10;;;;;;5071289;28;20560;-77
2022/03/23 11:19:18;;;;;;;18.47;16.67;;;15.50;65.10;;;;;;5074504;28;20432;-76
2022/03/23 11:22:02;;;;;;;18.03;16.37;;;15.60;64.90;;;;;;5077509;28;20479;-77
2022/03/23 11:24:33;;;;;;;18.57;16.87;;;15.60;64.60;;;;;;5078056;28;20469;-77
2022/03/23 11:27:02;;;;;;;17.80;16.17;;;15.60;64.60;;;;;;5078163;28;20883;-77
2022/03/23 11:29:32;;;;;;;18.53;16.40;;;15.70;64.60;;;;;;5077019;28;20973;-77
2022/03/23 11:32:04;;;;;;;19.10;16.63;;;15.70;64.20;;;;;;5078189;28;20447;-78
2022/03/23 11:34:36;;;;;;;17.57;16.00;;;15.80;63.70;;;;;;5078982;28;20737;-77
2022/03/23 11:37:06;;;;;;;17.27;15.67;;;15.80;63.30;;;;;;5078773;28;20468;-78
2022/03/23 11:39:36;;;;;;;17.97;16.17;;;15.90;63.50;;;;;;5078287;28;20491;-77
2022/03/23 11:42:06;;;;;;;17.73;16.23;;;15.90;63.50;;;;;;5079186;28;20520;-77
2022/03/23 11:44:36;;;;;;;17.70;15.80;;;15.90;63.10;;;;;;5079195;28;20467;-77
2022/03/23 11:47:10;;;;;;;17.77;15.90;;;15.90;63.00;;;;;;5078105;28;20464;-78
2022/03/23 11:49:47;;;;;;;18.90;17.30;;;16.00;63.20;;;;;;5078547;28;20587;-78
2022/03/23 11:52:34;;;;;;;19.00;17.20;;;16.00;63.00;;;;;;5076960;28;20498;-78
2022/03/23 11:58:16;;;;;;;18.77;17.13;;;16.10;62.70;;;;;;5080219;28;20416;-78
2022/03/23 12:00:47;;;;;;;19.00;17.33;;;16.10;62.50;;;;;;5081178;28;20512;-78
2022/03/23 12:03:48;;;;;;;19.50;17.60;;;16.10;61.90;;;;;;5081444;28;20410;-78
2022/03/23 12:06:20;;;;;;;23.17;18.77;;;16.20;61.30;;;;;;5080481;28;20486;-78
2022/03/23 12:08:50;;;;;;;19.93;17.90;;;16.20;61.40;;;;;;5083132;28;20437;-78
2022/03/23 12:11:32;;;;;;;18.83;17.07;;;16.20;61.60;;;;;;5081015;28;20957;-79
2022/03/23 12:14:02;;;;;;;19.47;17.67;;;16.20;61.10;;;;;;5079583;28;20502;-79
2022/03/23 12:17:05;;;;;;;20.70;18.80;;;16.20;61.00;;;;;;5080761;28;20427;-78
2022/03/23 12:20:12;;;;;;;19.73;18.00;;;16.20;60.80;;;;;;5077241;28;20938;-78
2022/03/23 12:23:22;;;;;;;20.97;18.77;;;16.20;61.00;;;;;;5079326;28;20416;-77
2022/03/23 12:26:11;;;;;;;21.47;19.47;;;16.30;60.90;;;;;;5078540;28;20484;-77
2022/03/23 12:28:44;;;;;;;21.33;19.23;;;16.30;60.90;;;;;;5078217;28;20449;-78
2022/03/23 12:31:15;;;;;;;19.07;17.37;;;16.30;60.70;;;;;;5075994;28;20805;-77
2022/03/23 12:34:07;;;;;;;20.87;18.93;;;16.40;60.50;;;;;;5078710;28;20422;-79
2022/03/23 12:39:25;;;;;;;22.00;19.80;;;16.40;60.50;;;;;;5079036;28;20423;-78
2022/03/23 12:41:56;;;;;;;22.97;20.73;;;16.50;60.70;;;;;;5079177;28;20564;-78
2022/03/23 12:44:29;;;;;;;21.90;19.90;;;16.50;60.30;;;;;;5079771;28;20392;-78
2022/03/23 12:47:05;;;;;;;34.37;19.63;;;16.50;60.10;;;;;;5079000;28;20509;-78
2022/03/23 12:58:06;;;;;;;21.17;18.97;;;16.60;59.90;;;;;;5082435;28;20421;-78
2022/03/23 13:00:37;;;;;;;19.50;17.60;;;16.60;59.80;;;;;;5083076;28;20483;-78
2022/03/23 13:03:54;;;;;;;21.53;19.43;;;16.60;60.00;;;;;;5083574;28;20419;-78
2022/03/23 13:06:33;;;;;;;21.70;19.60;;;16.70;60.10;;;;;;5081959;28;20481;-78
2022/03/23 13:09:01;;;;;;;20.90;19.10;;;16.80;59.90;;;;;;5082724;28;20395;-78
2022/03/23 13:11:32;;;;;;;21.57;19.60;;;16.80;59.70;;;;;;5081432;28;20452;-78
2022/03/23 13:14:02;;;;;;;20.90;18.97;;;16.90;59.70;;;;;;5082174;28;20761;-79
2022/03/23 13:16:32;;;;;;;22.20;20.30;;;16.90;59.30;;;;;;5081019;28;20472;-79
2022/03/23 13:19:03;;;;;;;20.93;19.13;;;17.00;59.40;;;;;;5080785;28;20427;-79
2022/03/23 13:21:35;;;;;;;20.53;18.63;;;17.00;58.70;;;;;;5080565;28;20442;-78
2022/03/23 13:24:05;;;;;;;20.47;18.47;;;17.10;59.10;;;;;;5083211;28;20456;-79